sensor_id;sensor_type;location;lat;lon;timestamp;P1;durP1;ratioP1;P2;durP2;ratioP2
50815;SDS011;39717;47.324;8.788;2023-02-01T00:00:10;11.60;;;7.07;;
50815;SDS011;39717;47.324;8.788;2023-02-01T00:02:36;9.93;;;7.43;;
50815;SDS011;39717;47.324;8.788;2023-02-01T00:05:06;14.73;;;8.30;;
50815;SDS011;39717;47.324;8.788;2023-02-01T00:07:36;12.40;;;7.23;;
50815;SDS011;39717;47.324;8.788;2023-02-01T00:10:03;12.10;;;7.70;;
50815;SDS011;39717;47.324;8.788;2023-02-01T00:12:30;12.83;;;7.53;;
50815;SDS011;39717;47.324;8.788;2023-02-01T00:14:56;13.70;;;8.47;;
50815;SDS011;39717;47.324;8.788;2023-02-01T00:17:23;11.60;;;7.40;;
50815;SDS011;39717;47.324;8.788;2023-02-01T00:19:49;12.20;;;7.57;;
50815;SDS011;39717;47.324;8.788;2023-02-01T00:22:15;11.50;;;8.07;;
50815;SDS011;39717;47.324;8.788;2023-02-01T00:24:41;11.97;;;7.73;;
50815;SDS011;39717;47.324;8.788;2023-02-01T00:27:07;11.70;;;8.23;;
50815;SDS011;39717;47.324;8.788;2023-02-01T00:29:32;11.00;;;8.13;;
50815;SDS011;39717;47.324;8.788;2023-02-01T00:31:58;11.47;;;7.90;;
50815;SDS011;39717;47.324;8.788;2023-02-01T00:34:24;10.73;;;7.03;;
50815;SDS011;39717;47.324;8.788;2023-02-01T00:36:50;13.73;;;7.73;;
50815;SDS011;39717;47.324;8.788;2023-02-01T00:39:15;12.13;;;7.60;;
50815;SDS011;39717;47.324;8.788;2023-02-01T00:41:41;13.37;;;8.70;;
50815;SDS011;39717;47.324;8.788;2023-02-01T00:44:08;12.37;;;8.33;;
50815;SDS011;39717;47.324;8.788;2023-02-01T00:46:33;13.03;;;8.47;;
50815;SDS011;39717;47.324;8.788;2023-02-01T00:48:59;11.03;;;7.10;;
50815;SDS011;39717;47.324;8.788;2023-02-01T00:51:26;11.00;;;7.70;;
50815;SDS011;39717;47.324;8.788;2023-02-01T00:53:53;14.60;;;8.23;;
50815;SDS011;39717;47.324;8.788;2023-02-01T00:56:19;13.20;;;8.50;;
50815;SDS011;39717;47.324;8.788;2023-02-01T00:58:45;13.33;;;8.03;;
50815;SDS011;39717;47.324;8.788;2023-02-01T01:01:13;12.17;;;7.60;;
50815;SDS011;39717;47.324;8.788;2023-02-01T01:03:48;14.00;;;7.00;;
50815;SDS011;39717;47.324;8.788;2023-02-01T01:06:17;14.77;;;7.93;;
50815;SDS011;39717;47.324;8.788;2023-02-01T01:08:46;12.37;;;7.60;;
50815;SDS011;39717;47.324;8.788;2023-02-01T01:11:20;10.70;;;7.20;;
50815;SDS011;39717;47.324;8.788;2023-02-01T01:13:49;10.07;;;7.07;;
50815;SDS011;39717;47.324;8.788;2023-02-01T01:16:16;10.23;;;7.37;;
50815;SDS011;39717;47.324;8.788;2023-02-01T01:18:43;11.77;;;8.07;;
50815;SDS011;39717;47.324;8.788;2023-02-01T01:21:10;11.93;;;7.90;;
50815;SDS011;39717;47.324;8.788;2023-02-01T01:23:37;13.10;;;7.87;;
50815;SDS011;39717;47.324;8.788;2023-02-01T01:28:38;13.37;;;8.03;;
50815;SDS011;39717;47.324;8.788;2023-02-01T01:31:07;11.03;;;7.87;;
50815;SDS011;39717;47.324;8.788;2023-02-01T01:33:33;10.43;;;7.67;;
50815;SDS011;39717;47.324;8.788;2023-02-01T01:35:59;9.97;;;7.13;;
50815;SDS011;39717;47.324;8.788;2023-02-01T01:38:25;10.83;;;7.37;;
50815;SDS011;39717;47.324;8.788;2023-02-01T01:40:52;12.47;;;7.83;;
50815;SDS011;39717;47.324;8.788;2023-02-01T01:43:19;12.80;;;8.27;;
50815;SDS011;39717;47.324;8.788;2023-02-01T01:45:49;13.27;;;8.10;;
50815;SDS011;39717;47.324;8.788;2023-02-01T01:48:18;11.63;;;7.47;;
50815;SDS011;39717;47.324;8.788;2023-02-01T01:51:05;11.60;;;7.40;;
50815;SDS011;39717;47.324;8.788;2023-02-01T01:53:36;10.67;;;7.73;;
50815;SDS011;39717;47.324;8.788;2023-02-01T01:56:04;13.83;;;8.20;;
50815;SDS011;39717;47.324;8.788;2023-02-01T01:58:30;11.57;;;7.47;;
50815;SDS011;39717;47.324;8.788;2023-02-01T02:00:58;12.17;;;7.53;;
50815;SDS011;39717;47.324;8.788;2023-02-01T02:03:30;12.33;;;8.10;;
50815;SDS011;39717;47.324;8.788;2023-02-01T02:05:59;13.43;;;8.20;;
50815;SDS011;39717;47.324;8.788;2023-02-01T02:08:26;11.13;;;7.80;;
50815;SDS011;39717;47.324;8.788;2023-02-01T02:10:53;13.77;;;7.90;;
50815;SDS011;39717;47.324;8.788;2023-02-01T02:13:32;13.93;;;8.23;;
50815;SDS011;39717;47.324;8.788;2023-02-01T02:16:04;11.13;;;7.60;;
50815;SDS011;39717;47.324;8.788;2023-02-01T02:18:38;13.20;;;8.03;;
50815;SDS011;39717;47.324;8.788;2023-02-01T02:21:10;13.57;;;7.40;;
50815;SDS011;39717;47.324;8.788;2023-02-01T02:24:24;12.77;;;8.43;;
50815;SDS011;39717;47.324;8.788;2023-02-01T02:31:43;13.00;;;7.90;;
50815;SDS011;39717;47.324;8.788;2023-02-01T02:36:56;11.17;;;7.40;;
50815;SDS011;39717;47.324;8.788;2023-02-01T02:53:13;10.80;;;7.37;;
50815;SDS011;39717;47.324;8.788;2023-02-01T02:55:58;12.43;;;7.97;;
50815;SDS011;39717;47.324;8.788;2023-02-01T02:58:43;11.50;;;7.43;;
50815;SDS011;39717;47.324;8.788;2023-02-01T03:01:28;10.50;;;7.23;;
50815;SDS011;39717;47.324;8.788;2023-02-01T03:04:14;14.73;;;8.33;;
50815;SDS011;39717;47.324;8.788;2023-02-01T03:06:43;12.70;;;7.53;;
50815;SDS011;39717;47.324;8.788;2023-02-01T03:09:14;13.40;;;8.87;;
50815;SDS011;39717;47.324;8.788;2023-02-01T03:11:42;14.20;;;8.10;;
50815;SDS011;39717;47.324;8.788;2023-02-01T03:14:47;13.23;;;8.83;;
50815;SDS011;39717;47.324;8.788;2023-02-01T03:17:18;12.43;;;7.77;;
50815;SDS011;39717;47.324;8.788;2023-02-01T03:19:45;12.93;;;7.80;;
50815;SDS011;39717;47.324;8.788;2023-02-01T03:22:15;13.10;;;8.00;;
50815;SDS011;39717;47.324;8.788;2023-02-01T03:24:47;12.03;;;7.33;;
50815;SDS011;39717;47.324;8.788;2023-02-01T03:27:18;13.83;;;7.83;;
50815;SDS011;39717;47.324;8.788;2023-02-01T03:30:07;10.37;;;7.33;;
50815;SDS011;39717;47.324;8.788;2023-02-01T03:32:34;10.83;;;6.77;;
50815;SDS011;39717;47.324;8.788;2023-02-01T03:35:21;12.00;;;7.57;;
50815;SDS011;39717;47.324;8.788;2023-02-01T03:37:50;13.80;;;7.60;;
50815;SDS011;39717;47.324;8.788;2023-02-01T03:40:17;11.43;;;8.00;;
50815;SDS011;39717;47.324;8.788;2023-02-01T03:42:45;12.00;;;7.97;;
50815;SDS011;39717;47.324;8.788;2023-02-01T03:47:47;12.47;;;7.70;;
50815;SDS011;39717;47.324;8.788;2023-02-01T03:50:15;12.33;;;8.27;;
50815;SDS011;39717;47.324;8.788;2023-02-01T03:52:43;15.50;;;9.37;;
50815;SDS011;39717;47.324;8.788;2023-02-01T03:55:11;11.43;;;7.87;;
50815;SDS011;39717;47.324;8.788;2023-02-01T03:57:45;11.60;;;8.30;;
50815;SDS011;39717;47.324;8.788;2023-02-01T04:00:16;11.57;;;8.33;;
50815;SDS011;39717;47.324;8.788;2023-02-01T04:02:43;14.17;;;8.70;;
50815;SDS011;39717;47.324;8.788;2023-02-01T04:05:09;14.87;;;9.40;;
50815;SDS011;39717;47.324;8.788;2023-02-01T04:07:35;13.37;;;8.80;;
50815;SDS011;39717;47.324;8.788;2023-02-01T04:10:01;14.50;;;9.17;;
50815;SDS011;39717;47.324;8.788;2023-02-01T04:12:28;14.93;;;9.30;;
50815;SDS011;39717;47.324;8.788;2023-02-01T04:14:54;15.30;;;9.23;;
50815;SDS011;39717;47.324;8.788;2023-02-01T04:17:20;14.17;;;8.80;;
50815;SDS011;39717;47.324;8.788;2023-02-01T04:19:47;15.37;;;9.27;;
50815;SDS011;39717;47.324;8.788;2023-02-01T04:22:13;13.60;;;9.27;;
50815;SDS011;39717;47.324;8.788;2023-02-01T04:24:39;11.97;;;8.03;;
50815;SDS011;39717;47.324;8.788;2023-02-01T04:27:05;11.27;;;8.63;;
50815;SDS011;39717;47.324;8.788;2023-02-01T04:29:31;11.80;;;8.03;;
50815;SDS011;39717;47.324;8.788;2023-02-01T04:31:58;12.60;;;8.37;;
50815;SDS011;39717;47.324;8.788;2023-02-01T04:34:24;9.77;;;7.60;;
50815;SDS011;39717;47.324;8.788;2023-02-01T04:36:50;11.93;;;7.70;;
50815;SDS011;39717;47.324;8.788;2023-02-01T04:39:16;12.97;;;8.77;;
50815;SDS011;39717;47.324;8.788;2023-02-01T04:41:43;10.13;;;7.50;;
50815;SDS011;39717;47.324;8.788;2023-02-01T04:44:12;12.73;;;8.60;;
50815;SDS011;39717;47.324;8.788;2023-02-01T04:46:39;12.20;;;7.83;;
50815;SDS011;39717;47.324;8.788;2023-02-01T04:49:05;9.60;;;6.80;;
50815;SDS011;39717;47.324;8.788;2023-02-01T04:51:31;13.80;;;8.27;;
50815;SDS011;39717;47.324;8.788;2023-02-01T04:53:57;11.07;;;7.40;;
50815;SDS011;39717;47.324;8.788;2023-02-01T04:56:24;10.70;;;6.87;;
50815;SDS011;39717;47.324;8.788;2023-02-01T04:58:50;10.93;;;6.97;;
50815;SDS011;39717;47.324;8.788;2023-02-01T05:01:16;10.40;;;6.70;;
50815;SDS011;39717;47.324;8.788;2023-02-01T05:03:42;11.13;;;6.97;;
50815;SDS011;39717;47.324;8.788;2023-02-01T05:06:08;11.07;;;7.80;;
50815;SDS011;39717;47.324;8.788;2023-02-01T05:08:34;11.07;;;6.53;;
50815;SDS011;39717;47.324;8.788;2023-02-01T05:11:00;9.10;;;6.13;;
50815;SDS011;39717;47.324;8.788;2023-02-01T05:13:29;10.83;;;6.67;;
50815;SDS011;39717;47.324;8.788;2023-02-01T05:16:14;11.00;;;7.03;;
50815;SDS011;39717;47.324;8.788;2023-02-01T05:18:40;6.17;;;5.10;;
50815;SDS011;39717;47.324;8.788;2023-02-01T05:21:07;12.83;;;7.50;;
50815;SDS011;39717;47.324;8.788;2023-02-01T05:23:33;11.30;;;5.87;;
50815;SDS011;39717;47.324;8.788;2023-02-01T05:26:19;11.07;;;7.13;;
50815;SDS011;39717;47.324;8.788;2023-02-01T05:28:45;10.63;;;6.53;;
50815;SDS011;39717;47.324;8.788;2023-02-01T05:31:11;10.50;;;6.97;;
50815;SDS011;39717;47.324;8.788;2023-02-01T05:33:37;12.63;;;7.67;;
50815;SDS011;39717;47.324;8.788;2023-02-01T05:36:03;11.50;;;7.30;;
50815;SDS011;39717;47.324;8.788;2023-02-01T05:38:30;13.40;;;7.33;;
50815;SDS011;39717;47.324;8.788;2023-02-01T05:40:56;12.77;;;7.10;;
50815;SDS011;39717;47.324;8.788;2023-02-01T05:43:22;13.30;;;6.80;;
50815;SDS011;39717;47.324;8.788;2023-02-01T05:45:48;9.10;;;6.63;;
50815;SDS011;39717;47.324;8.788;2023-02-01T05:48:14;11.53;;;7.37;;
50815;SDS011;39717;47.324;8.788;2023-02-01T05:50:40;8.43;;;6.03;;
50815;SDS011;39717;47.324;8.788;2023-02-01T05:53:06;11.67;;;6.60;;
50815;SDS011;39717;47.324;8.788;2023-02-01T05:55:32;7.27;;;5.17;;
50815;SDS011;39717;47.324;8.788;2023-02-01T05:57:58;12.93;;;6.80;;
50815;SDS011;39717;47.324;8.788;2023-02-01T06:00:24;10.20;;;6.17;;
50815;SDS011;39717;47.324;8.788;2023-02-01T06:02:52;9.23;;;5.80;;
50815;SDS011;39717;47.324;8.788;2023-02-01T06:05:18;10.30;;;6.70;;
50815;SDS011;39717;47.324;8.788;2023-02-01T06:07:44;9.90;;;6.10;;
50815;SDS011;39717;47.324;8.788;2023-02-01T06:10:10;9.23;;;6.33;;
50815;SDS011;39717;47.324;8.788;2023-02-01T06:12:36;9.67;;;5.57;;
50815;SDS011;39717;47.324;8.788;2023-02-01T06:15:03;10.80;;;6.30;;
50815;SDS011;39717;47.324;8.788;2023-02-01T06:17:29;8.37;;;5.80;;
50815;SDS011;39717;47.324;8.788;2023-02-01T06:19:55;9.00;;;6.30;;
50815;SDS011;39717;47.324;8.788;2023-02-01T06:22:21;11.50;;;7.00;;
50815;SDS011;39717;47.324;8.788;2023-02-01T06:24:47;11.80;;;7.30;;
50815;SDS011;39717;47.324;8.788;2023-02-01T06:27:14;12.60;;;7.70;;
50815;SDS011;39717;47.324;8.788;2023-02-01T06:29:40;17.33;;;8.97;;
50815;SDS011;39717;47.324;8.788;2023-02-01T06:32:06;12.20;;;7.27;;
50815;SDS011;39717;47.324;8.788;2023-02-01T06:34:34;12.03;;;7.80;;
50815;SDS011;39717;47.324;8.788;2023-02-01T06:37:02;9.90;;;6.37;;
50815;SDS011;39717;47.324;8.788;2023-02-01T06:39:28;10.53;;;6.00;;
50815;SDS011;39717;47.324;8.788;2023-02-01T06:41:54;9.13;;;6.57;;
50815;SDS011;39717;47.324;8.788;2023-02-01T06:44:20;13.10;;;6.77;;
50815;SDS011;39717;47.324;8.788;2023-02-01T06:46:46;14.10;;;6.53;;
50815;SDS011;39717;47.324;8.788;2023-02-01T06:49:12;9.73;;;5.87;;
50815;SDS011;39717;47.324;8.788;2023-02-01T06:51:38;8.70;;;6.37;;
50815;SDS011;39717;47.324;8.788;2023-02-01T06:54:04;13.60;;;7.17;;
50815;SDS011;39717;47.324;8.788;2023-02-01T06:56:31;10.23;;;6.97;;
50815;SDS011;39717;47.324;8.788;2023-02-01T06:58:57;9.03;;;6.03;;
50815;SDS011;39717;47.324;8.788;2023-02-01T07:01:23;13.40;;;6.97;;
50815;SDS011;39717;47.324;8.788;2023-02-01T07:03:49;8.20;;;5.67;;
50815;SDS011;39717;47.324;8.788;2023-02-01T07:06:18;9.53;;;6.23;;
50815;SDS011;39717;47.324;8.788;2023-02-01T07:08:45;8.53;;;5.70;;
50815;SDS011;39717;47.324;8.788;2023-02-01T07:11:12;11.40;;;6.43;;
50815;SDS011;39717;47.324;8.788;2023-02-01T07:13:38;11.53;;;6.40;;
50815;SDS011;39717;47.324;8.788;2023-02-01T07:16:06;11.10;;;5.80;;
50815;SDS011;39717;47.324;8.788;2023-02-01T07:18:32;10.43;;;5.43;;
50815;SDS011;39717;47.324;8.788;2023-02-01T07:20:59;7.00;;;2.53;;
50815;SDS011;39717;47.324;8.788;2023-02-01T07:23:25;10.23;;;5.93;;
50815;SDS011;39717;47.324;8.788;2023-02-01T07:25:55;7.83;;;5.10;;
50815;SDS011;39717;47.324;8.788;2023-02-01T07:28:21;10.40;;;6.77;;
50815;SDS011;39717;47.324;8.788;2023-02-01T07:30:48;10.87;;;6.10;;
50815;SDS011;39717;47.324;8.788;2023-02-01T07:33:22;13.03;;;5.87;;
50815;SDS011;39717;47.324;8.788;2023-02-01T07:35:50;9.43;;;6.53;;
50815;SDS011;39717;47.324;8.788;2023-02-01T07:38:16;11.23;;;6.13;;
50815;SDS011;39717;47.324;8.788;2023-02-01T07:40:44;8.70;;;5.63;;
50815;SDS011;39717;47.324;8.788;2023-02-01T07:43:10;10.30;;;6.50;;
50815;SDS011;39717;47.324;8.788;2023-02-01T07:45:36;9.50;;;5.87;;
50815;SDS011;39717;47.324;8.788;2023-02-01T07:48:02;10.33;;;5.13;;
50815;SDS011;39717;47.324;8.788;2023-02-01T07:50:29;11.67;;;6.50;;
50815;SDS011;39717;47.324;8.788;2023-02-01T07:52:57;8.70;;;5.50;;
50815;SDS011;39717;47.324;8.788;2023-02-01T07:55:24;10.77;;;5.57;;
50815;SDS011;39717;47.324;8.788;2023-02-01T07:57:51;8.90;;;6.13;;
50815;SDS011;39717;47.324;8.788;2023-02-01T08:00:17;11.20;;;7.27;;
50815;SDS011;39717;47.324;8.788;2023-02-01T08:03:03;8.80;;;5.77;;
50815;SDS011;39717;47.324;8.788;2023-02-01T08:05:30;8.50;;;6.17;;
50815;SDS011;39717;47.324;8.788;2023-02-01T08:07:56;11.90;;;6.50;;
50815;SDS011;39717;47.324;8.788;2023-02-01T08:10:22;8.57;;;6.17;;
50815;SDS011;39717;47.324;8.788;2023-02-01T08:12:48;8.93;;;4.50;;
50815;SDS011;39717;47.324;8.788;2023-02-01T08:15:17;8.60;;;5.37;;
50815;SDS011;39717;47.324;8.788;2023-02-01T08:17:47;8.13;;;5.97;;
50815;SDS011;39717;47.324;8.788;2023-02-01T08:20:13;12.33;;;5.87;;
50815;SDS011;39717;47.324;8.788;2023-02-01T08:22:40;9.00;;;6.20;;
50815;SDS011;39717;47.324;8.788;2023-02-01T08:25:06;7.23;;;4.80;;
50815;SDS011;39717;47.324;8.788;2023-02-01T08:27:32;7.70;;;4.63;;
50815;SDS011;39717;47.324;8.788;2023-02-01T08:29:59;8.43;;;4.73;;
50815;SDS011;39717;47.324;8.788;2023-02-01T08:32:25;10.33;;;5.07;;
50815;SDS011;39717;47.324;8.788;2023-02-01T08:34:51;7.70;;;4.97;;
50815;SDS011;39717;47.324;8.788;2023-02-01T08:37:18;9.60;;;6.17;;
50815;SDS011;39717;47.324;8.788;2023-02-01T08:39:45;10.33;;;6.27;;
50815;SDS011;39717;47.324;8.788;2023-02-01T08:42:12;10.30;;;6.20;;
50815;SDS011;39717;47.324;8.788;2023-02-01T08:44:57;9.90;;;5.43;;
50815;SDS011;39717;47.324;8.788;2023-02-01T08:47:23;9.67;;;6.57;;
50815;SDS011;39717;47.324;8.788;2023-02-01T08:49:49;7.93;;;5.73;;
50815;SDS011;39717;47.324;8.788;2023-02-01T08:52:16;10.93;;;5.10;;
50815;SDS011;39717;47.324;8.788;2023-02-01T08:54:42;8.23;;;5.50;;
50815;SDS011;39717;47.324;8.788;2023-02-01T08:57:08;8.00;;;4.87;;
50815;SDS011;39717;47.324;8.788;2023-02-01T08:59:35;8.87;;;5.87;;
50815;SDS011;39717;47.324;8.788;2023-02-01T09:02:01;5.97;;;4.27;;
50815;SDS011;39717;47.324;8.788;2023-02-01T09:04:27;7.20;;;5.37;;
50815;SDS011;39717;47.324;8.788;2023-02-01T09:06:53;8.27;;;5.53;;
50815;SDS011;39717;47.324;8.788;2023-02-01T09:09:24;9.47;;;5.47;;
50815;SDS011;39717;47.324;8.788;2023-02-01T09:11:53;11.33;;;5.03;;
50815;SDS011;39717;47.324;8.788;2023-02-01T09:14:19;10.97;;;5.80;;
50815;SDS011;39717;47.324;8.788;2023-02-01T09:16:45;9.53;;;5.63;;
50815;SDS011;39717;47.324;8.788;2023-02-01T09:19:12;9.20;;;5.17;;
50815;SDS011;39717;47.324;8.788;2023-02-01T09:21:38;9.13;;;5.90;;
50815;SDS011;39717;47.324;8.788;2023-02-01T09:24:04;12.03;;;5.97;;
50815;SDS011;39717;47.324;8.788;2023-02-01T09:26:31;7.93;;;4.60;;
50815;SDS011;39717;47.324;8.788;2023-02-01T09:29:00;7.20;;;5.33;;
50815;SDS011;39717;47.324;8.788;2023-02-01T09:31:26;8.53;;;5.07;;
50815;SDS011;39717;47.324;8.788;2023-02-01T09:33:52;7.60;;;5.87;;
50815;SDS011;39717;47.324;8.788;2023-02-01T09:36:18;7.83;;;5.27;;
50815;SDS011;39717;47.324;8.788;2023-02-01T09:38:48;9.03;;;5.53;;
50815;SDS011;39717;47.324;8.788;2023-02-01T09:41:24;8.50;;;6.17;;
50815;SDS011;39717;47.324;8.788;2023-02-01T09:46:34;9.27;;;5.13;;
50815;SDS011;39717;47.324;8.788;2023-02-01T09:49:01;10.00;;;5.47;;
50815;SDS011;39717;47.324;8.788;2023-02-01T09:51:30;7.70;;;4.47;;
50815;SDS011;39717;47.324;8.788;2023-02-01T09:53:59;9.20;;;5.00;;
50815;SDS011;39717;47.324;8.788;2023-02-01T10:01:49;7.90;;;4.53;;
50815;SDS011;39717;47.324;8.788;2023-02-01T10:04:21;8.47;;;5.00;;
50815;SDS011;39717;47.324;8.788;2023-02-01T10:17:23;7.03;;;4.53;;
50815;SDS011;39717;47.324;8.788;2023-02-01T10:22:39;5.00;;;4.03;;
50815;SDS011;39717;47.324;8.788;2023-02-01T10:27:36;8.43;;;4.07;;
50815;SDS011;39717;47.324;8.788;2023-02-01T10:30:14;4.37;;;3.30;;
50815;SDS011;39717;47.324;8.788;2023-02-01T10:32:41;5.17;;;3.50;;
50815;SDS011;39717;47.324;8.788;2023-02-01T10:38:12;5.23;;;2.63;;
50815;SDS011;39717;47.324;8.788;2023-02-01T10:40:40;4.57;;;2.90;;
50815;SDS011;39717;47.324;8.788;2023-02-01T10:43:07;4.77;;;3.30;;
50815;SDS011;39717;47.324;8.788;2023-02-01T10:45:34;3.50;;;2.60;;
50815;SDS011;39717;47.324;8.788;2023-02-01T10:48:01;4.07;;;2.93;;
50815;SDS011;39717;47.324;8.788;2023-02-01T10:53:22;2.63;;;2.43;;
50815;SDS011;39717;47.324;8.788;2023-02-01T10:55:53;2.57;;;2.13;;
50815;SDS011;39717;47.324;8.788;2023-02-01T11:03:27;3.60;;;2.37;;
50815;SDS011;39717;47.324;8.788;2023-02-01T11:05:56;3.63;;;2.50;;
50815;SDS011;39717;47.324;8.788;2023-02-01T11:08:22;3.27;;;2.13;;
50815;SDS011;39717;47.324;8.788;2023-02-01T11:10:55;2.00;;;1.63;;
50815;SDS011;39717;47.324;8.788;2023-02-01T11:13:22;1.50;;;1.40;;
50815;SDS011;39717;47.324;8.788;2023-02-01T11:15:54;4.33;;;2.13;;
50815;SDS011;39717;47.324;8.788;2023-02-01T11:18:25;2.80;;;1.50;;
50815;SDS011;39717;47.324;8.788;2023-02-01T11:20:52;2.53;;;2.00;;
50815;SDS011;39717;47.324;8.788;2023-02-01T11:23:21;1.60;;;1.50;;
50815;SDS011;39717;47.324;8.788;2023-02-01T11:25:49;3.00;;;1.50;;
50815;SDS011;39717;47.324;8.788;2023-02-01T11:28:16;3.67;;;2.00;;
50815;SDS011;39717;47.324;8.788;2023-02-01T11:30:44;3.27;;;1.87;;
50815;SDS011;39717;47.324;8.788;2023-02-01T11:33:19;3.83;;;2.27;;
50815;SDS011;39717;47.324;8.788;2023-02-01T11:35:48;2.53;;;1.97;;
50815;SDS011;39717;47.324;8.788;2023-02-01T11:38:28;3.03;;;2.03;;
50815;SDS011;39717;47.324;8.788;2023-02-01T11:40:55;2.57;;;2.23;;
50815;SDS011;39717;47.324;8.788;2023-02-01T11:43:36;4.00;;;2.17;;
50815;SDS011;39717;47.324;8.788;2023-02-01T11:46:03;3.73;;;2.27;;
50815;SDS011;39717;47.324;8.788;2023-02-01T11:48:30;2.20;;;2.00;;
50815;SDS011;39717;47.324;8.788;2023-02-01T11:53:42;2.20;;;1.97;;
50815;SDS011;39717;47.324;8.788;2023-02-01T12:17:11;1.87;;;1.40;;
50815;SDS011;39717;47.324;8.788;2023-02-01T12:22:19;4.23;;;2.53;;
50815;SDS011;39717;47.324;8.788;2023-02-01T12:32:20;3.17;;;2.77;;
50815;SDS011;39717;47.324;8.788;2023-02-01T12:35:04;4.30;;;2.40;;
50815;SDS011;39717;47.324;8.788;2023-02-01T12:40:21;3.37;;;2.40;;
50815;SDS011;39717;47.324;8.788;2023-02-01T12:45:39;3.77;;;2.00;;
50815;SDS011;39717;47.324;8.788;2023-02-01T12:48:19;3.33;;;2.57;;
50815;SDS011;39717;47.324;8.788;2023-02-01T12:50:49;1.10;;;1.00;;
50815;SDS011;39717;47.324;8.788;2023-02-01T12:55:48;2.47;;;2.27;;
50815;SDS011;39717;47.324;8.788;2023-02-01T12:58:21;3.93;;;2.40;;
50815;SDS011;39717;47.324;8.788;2023-02-01T13:05:50;2.80;;;2.17;;
50815;SDS011;39717;47.324;8.788;2023-02-01T13:08:38;2.33;;;2.13;;
50815;SDS011;39717;47.324;8.788;2023-02-01T13:11:09;4.00;;;2.53;;
50815;SDS011;39717;47.324;8.788;2023-02-01T13:13:44;5.27;;;2.93;;
50815;SDS011;39717;47.324;8.788;2023-02-01T13:16:16;2.77;;;1.87;;
50815;SDS011;39717;47.324;8.788;2023-02-01T13:18:49;2.57;;;2.30;;
50815;SDS011;39717;47.324;8.788;2023-02-01T13:21:21;4.73;;;2.40;;
50815;SDS011;39717;47.324;8.788;2023-02-01T13:23:48;3.00;;;2.33;;
50815;SDS011;39717;47.324;8.788;2023-02-01T13:26:16;3.13;;;2.00;;
50815;SDS011;39717;47.324;8.788;2023-02-01T13:28:44;4.27;;;1.93;;
50815;SDS011;39717;47.324;8.788;2023-02-01T13:31:25;5.30;;;2.00;;
50815;SDS011;39717;47.324;8.788;2023-02-01T13:42:01;2.47;;;2.23;;
50815;SDS011;39717;47.324;8.788;2023-02-01T13:44:30;1.50;;;1.40;;
50815;SDS011;39717;47.324;8.788;2023-02-01T13:46:59;3.00;;;2.30;;
50815;SDS011;39717;47.324;8.788;2023-02-01T13:49:27;2.40;;;2.00;;
50815;SDS011;39717;47.324;8.788;2023-02-01T13:51:55;3.07;;;1.97;;
50815;SDS011;39717;47.324;8.788;2023-02-01T13:54:26;6.13;;;4.03;;
50815;SDS011;39717;47.324;8.788;2023-02-01T13:56:53;3.07;;;1.90;;
50815;SDS011;39717;47.324;8.788;2023-02-01T14:00:03;2.17;;;1.93;;
50815;SDS011;39717;47.324;8.788;2023-02-01T14:04:54;3.13;;;2.07;;
50815;SDS011;39717;47.324;8.788;2023-02-01T14:07:21;2.60;;;2.00;;
50815;SDS011;39717;47.324;8.788;2023-02-01T14:09:48;1.60;;;1.50;;
50815;SDS011;39717;47.324;8.788;2023-02-01T14:12:41;3.40;;;1.83;;
50815;SDS011;39717;47.324;8.788;2023-02-01T14:17:56;1.23;;;1.13;;
50815;SDS011;39717;47.324;8.788;2023-02-01T14:20:38;3.53;;;2.00;;
50815;SDS011;39717;47.324;8.788;2023-02-01T14:23:10;2.67;;;2.20;;
50815;SDS011;39717;47.324;8.788;2023-02-01T14:25:37;2.43;;;2.10;;
50815;SDS011;39717;47.324;8.788;2023-02-01T14:28:09;4.30;;;2.17;;
50815;SDS011;39717;47.324;8.788;2023-02-01T14:30:36;2.53;;;2.07;;
50815;SDS011;39717;47.324;8.788;2023-02-01T14:33:11;3.73;;;2.50;;
50815;SDS011;39717;47.324;8.788;2023-02-01T14:35:38;1.93;;;1.70;;
50815;SDS011;39717;47.324;8.788;2023-02-01T14:38:04;5.07;;;2.63;;
50815;SDS011;39717;47.324;8.788;2023-02-01T14:40:32;2.77;;;2.20;;
50815;SDS011;39717;47.324;8.788;2023-02-01T14:43:00;2.10;;;1.90;;
50815;SDS011;39717;47.324;8.788;2023-02-01T14:47:53;2.60;;;2.10;;
50815;SDS011;39717;47.324;8.788;2023-02-01T14:50:26;2.30;;;1.83;;
50815;SDS011;39717;47.324;8.788;2023-02-01T14:58:23;1.97;;;1.77;;
50815;SDS011;39717;47.324;8.788;2023-02-01T15:00:56;2.03;;;1.80;;
50815;SDS011;39717;47.324;8.788;2023-02-01T15:05:56;1.37;;;1.13;;
50815;SDS011;39717;47.324;8.788;2023-02-01T15:08:25;2.80;;;1.70;;
50815;SDS011;39717;47.324;8.788;2023-02-01T15:10:53;2.87;;;1.60;;
50815;SDS011;39717;47.324;8.788;2023-02-01T15:13:24;2.50;;;1.37;;
50815;SDS011;39717;47.324;8.788;2023-02-01T15:16:33;2.63;;;1.70;;
50815;SDS011;39717;47.324;8.788;2023-02-01T15:18:40;2.87;;;1.83;;
50815;SDS011;39717;47.324;8.788;2023-02-01T15:21:14;2.93;;;1.80;;
50815;SDS011;39717;47.324;8.788;2023-02-01T15:23:40;2.93;;;1.80;;
50815;SDS011;39717;47.324;8.788;2023-02-01T15:26:06;4.93;;;2.03;;
50815;SDS011;39717;47.324;8.788;2023-02-01T15:28:33;4.07;;;1.87;;
50815;SDS011;39717;47.324;8.788;2023-02-01T15:31:00;3.03;;;1.70;;
50815;SDS011;39717;47.324;8.788;2023-02-01T15:33:27;4.93;;;1.67;;
50815;SDS011;39717;47.324;8.788;2023-02-01T15:41:03;2.57;;;1.60;;
50815;SDS011;39717;47.324;8.788;2023-02-01T15:43:31;3.60;;;2.17;;
50815;SDS011;39717;47.324;8.788;2023-02-01T15:45:58;2.37;;;1.53;;
50815;SDS011;39717;47.324;8.788;2023-02-01T15:48:26;3.07;;;2.00;;
50815;SDS011;39717;47.324;8.788;2023-02-01T15:50:53;8.63;;;2.10;;
50815;SDS011;39717;47.324;8.788;2023-02-01T15:53:22;4.53;;;2.00;;
50815;SDS011;39717;47.324;8.788;2023-02-01T15:55:53;5.43;;;2.10;;
50815;SDS011;39717;47.324;8.788;2023-02-01T15:58:21;3.97;;;2.00;;
50815;SDS011;39717;47.324;8.788;2023-02-01T16:00:49;8.30;;;2.73;;
50815;SDS011;39717;47.324;8.788;2023-02-01T16:03:33;4.57;;;2.10;;
50815;SDS011;39717;47.324;8.788;2023-02-01T16:06:04;4.63;;;2.07;;
50815;SDS011;39717;47.324;8.788;2023-02-01T16:08:31;3.63;;;1.90;;
50815;SDS011;39717;47.324;8.788;2023-02-01T16:13:34;3.83;;;1.87;;
50815;SDS011;39717;47.324;8.788;2023-02-01T16:16:01;8.73;;;2.53;;
50815;SDS011;39717;47.324;8.788;2023-02-01T16:18:29;3.50;;;2.03;;
50815;SDS011;39717;47.324;8.788;2023-02-01T16:20:55;4.60;;;2.13;;
50815;SDS011;39717;47.324;8.788;2023-02-01T16:23:21;3.70;;;2.30;;
50815;SDS011;39717;47.324;8.788;2023-02-01T16:25:47;9.17;;;2.83;;
50815;SDS011;39717;47.324;8.788;2023-02-01T16:28:13;7.17;;;2.27;;
50815;SDS011;39717;47.324;8.788;2023-02-01T16:30:39;5.77;;;2.17;;
50815;SDS011;39717;47.324;8.788;2023-02-01T16:33:05;5.60;;;2.13;;
50815;SDS011;39717;47.324;8.788;2023-02-01T16:35:36;4.73;;;2.40;;
50815;SDS011;39717;47.324;8.788;2023-02-01T16:38:03;5.00;;;2.40;;
50815;SDS011;39717;47.324;8.788;2023-02-01T16:40:34;4.40;;;2.70;;
50815;SDS011;39717;47.324;8.788;2023-02-01T16:43:00;5.77;;;2.63;;
50815;SDS011;39717;47.324;8.788;2023-02-01T16:45:27;5.63;;;2.63;;
50815;SDS011;39717;47.324;8.788;2023-02-01T16:47:54;5.30;;;2.70;;
50815;SDS011;39717;47.324;8.788;2023-02-01T16:50:21;4.60;;;2.00;;
50815;SDS011;39717;47.324;8.788;2023-02-01T16:52:48;4.40;;;2.40;;
50815;SDS011;39717;47.324;8.788;2023-02-01T16:55:15;4.87;;;2.40;;
50815;SDS011;39717;47.324;8.788;2023-02-01T16:57:42;4.50;;;2.40;;
50815;SDS011;39717;47.324;8.788;2023-02-01T17:00:09;4.83;;;2.13;;
50815;SDS011;39717;47.324;8.788;2023-02-01T17:02:35;2.50;;;2.00;;
50815;SDS011;39717;47.324;8.788;2023-02-01T17:05:01;3.53;;;2.00;;
50815;SDS011;39717;47.324;8.788;2023-02-01T17:07:28;4.20;;;2.30;;
50815;SDS011;39717;47.324;8.788;2023-02-01T17:09:54;3.27;;;1.87;;